Time;durP1;ratioP1;P1;durP2;ratioP2;P2;SDS_P1;SDS_P2;PMS_P1;PMS_P2;Temp;Humidity;BMP_temperature;BMP_pressure;BME280_temperature;BME280_humidity;BME280_pressure;Samples;Min_cycle;Max_cycle;Signal;HPM_P1;HPM_P2
2022/03/18 00:00:25;;;;;;;13.68;6.65;;;8.10;34.70;;;;;;5018375;28;20619;-76
2022/03/18 00:02:53;;;;;;;13.35;6.22;;;8.10;34.80;;;;;;5016416;28;20117;-76
2022/03/18 00:05:20;;;;;;;13.38;5.93;;;8.10;34.80;;;;;;5017143;28;20404;-76
2022/03/18 00:07:46;;;;;;;13.20;6.43;;;8.10;34.80;;;;;;5016324;28;20161;-76
2022/03/18 00:10:14;;;;;;;13.48;6.75;;;8.10;34.90;;;;;;5016087;28;20200;-76
2022/03/18 00:12:41;;;;;;;13.63;6.53;;;8.00;34.80;;;;;;5017824;28;20033;-76
2022/03/18 00:15:11;;;;;;;12.88;6.15;;;8.00;34.80;;;;;;5030991;28;20038;-75
2022/03/18 00:17:37;;;;;;;13.23;6.75;;;8.00;34.80;;;;;;5017576;28;20367;-75
2022/03/18 00:20:08;;;;;;;12.60;6.50;;;8.00;34.80;;;;;;5015590;28;20029;-76
2022/03/18 00:22:34;;;;;;;10.57;5.75;;;8.00;34.80;;;;;;5017520;28;20055;-76
2022/03/18 00:25:01;;;;;;;16.08;6.47;;;8.00;34.90;;;;;;5019797;28;20044;-76
2022/03/18 00:27:27;;;;;;;13.55;6.53;;;8.00;34.80;;;;;;5015137;28;20562;-75
2022/03/18 00:29:54;;;;;;;12.80;6.68;;;8.00;34.80;;;;;;5020140;28;20095;-76
2022/03/18 00:32:21;;;;;;;11.27;6.40;;;7.90;35.40;;;;;;5016194;28;20538;-75
2022/03/18 00:34:47;;;;;;;11.10;6.70;;;7.90;34.80;;;;;;5016586;28;20037;-74
2022/03/18 00:37:13;;;;;;;11.30;6.22;;;7.90;34.70;;;;;;5017499;28;20034;-76
2022/03/18 00:39:39;;;;;;;10.63;6.35;;;7.90;34.80;;;;;;5014737;28;20092;-75
2022/03/18 00:42:06;;;;;;;11.10;5.60;;;7.90;34.80;;;;;;5018062;28;21143;-75
2022/03/18 00:44:32;;;;;;;12.57;6.68;;;7.90;34.80;;;;;;5016809;28;20040;-75
2022/03/18 00:46:58;;;;;;;12.30;6.68;;;7.90;34.90;;;;;;5017088;28;20489;-75
2022/03/18 00:52:08;;;;;;;14.57;6.45;;;7.90;34.90;;;;;;5015250;28;20100;-75
2022/03/18 00:54:36;;;;;;;16.00;6.22;;;7.90;35.00;;;;;;5016270;28;20112;-76
2022/03/18 00:57:04;;;;;;;11.63;5.88;;;7.90;35.00;;;;;;5014587;28;20044;-76
2022/03/18 00:59:31;;;;;;;13.75;6.97;;;7.80;35.00;;;;;;4998262;28;20438;-76
2022/03/18 01:01:57;;;;;;;12.27;6.25;;;7.80;35.00;;;;;;5014166;28;20103;-76
2022/03/18 01:04:24;;;;;;;12.02;7.13;;;7.80;35.00;;;;;;5014208;28;20033;-76
2022/03/18 01:06:52;;;;;;;13.00;7.32;;;7.80;35.00;;;;;;5014973;28;20029;-76
2022/03/18 01:09:20;;;;;;;14.73;5.82;;;7.80;35.10;;;;;;5014917;28;20037;-75
2022/03/18 01:11:46;;;;;;;13.40;6.40;;;7.80;35.10;;;;;;4996678;28;20040;-76
2022/03/18 01:14:12;;;;;;;12.68;6.25;;;7.80;35.10;;;;;;5000818;28;20041;-76
2022/03/18 01:16:38;;;;;;;12.05;6.30;;;7.80;35.20;;;;;;4997776;28;20042;-75
2022/03/18 01:19:04;;;;;;;12.25;6.05;;;7.80;35.20;;;;;;5016020;28;20057;-76
2022/03/18 01:21:30;;;;;;;11.20;6.80;;;7.80;35.30;;;;;;5003826;28;20075;-75
2022/03/18 01:23:57;;;;;;;11.55;5.60;;;7.70;35.20;;;;;;4997719;28;20038;-76
2022/03/18 01:26:24;;;;;;;12.05;5.75;;;7.70;35.30;;;;;;5016550;28;20033;-76
2022/03/18 01:28:52;;;;;;;14.25;6.07;;;7.70;36.00;;;;;;5016556;28;20038;-75
2022/03/18 01:31:18;;;;;;;15.52;6.50;;;7.70;35.30;;;;;;5015462;28;20068;-76
2022/03/18 01:33:44;;;;;;;13.88;6.13;;;7.70;35.40;;;;;;5016488;28;20042;-76
2022/03/18 01:36:11;;;;;;;12.68;5.95;;;7.70;35.40;;;;;;5014205;28;20536;-76
2022/03/18 01:38:37;;;;;;;12.32;5.93;;;7.70;35.40;;;;;;5016662;28;20079;-77
2022/03/18 01:41:03;;;;;;;15.38;6.22;;;7.70;35.40;;;;;;5015629;28;20068;-76
2022/03/18 01:43:38;;;;;;;11.48;6.68;;;7.70;35.50;;;;;;5014972;28;20040;-74
2022/03/18 01:46:05;;;;;;;11.52;5.55;;;7.70;35.50;;;;;;5015851;28;20443;-75
2022/03/18 01:48:30;;;;;;;14.40;6.15;;;7.60;35.40;;;;;;5014986;28;20080;-76
2022/03/18 01:50:56;;;;;;;11.77;6.03;;;7.60;35.40;;;;;;5014807;28;20459;-77
2022/03/18 01:53:22;;;;;;;11.00;5.20;;;7.60;35.40;;;;;;5015621;28;20034;-78
2022/03/18 01:55:48;;;;;;;9.45;5.28;;;7.60;35.40;;;;;;5013309;28;20088;-77
2022/03/18 01:58:14;;;;;;;13.80;6.05;;;7.60;35.40;;;;;;4996538;28;20838;-78
2022/03/18 02:00:40;;;;;;;11.95;6.60;;;7.60;35.40;;;;;;5014435;28;20033;-78
2022/03/18 02:03:06;;;;;;;14.38;6.28;;;7.60;35.50;;;;;;5012782;28;20041;-78
2022/03/18 02:05:33;;;;;;;11.55;5.60;;;7.60;35.40;;;;;;5012971;28;20029;-77
2022/03/18 02:08:01;;;;;;;10.93;5.93;;;7.60;35.40;;;;;;5003139;28;20424;-78
2022/03/18 02:10:27;;;;;;;11.50;5.50;;;7.50;35.40;;;;;;5011375;28;20045;-78
2022/03/18 02:12:53;;;;;;;8.82;5.30;;;7.50;35.40;;;;;;5014238;28;20038;-78
2022/03/18 02:15:19;;;;;;;8.50;4.93;;;7.50;35.40;;;;;;5014735;28;20072;-78
2022/03/18 02:17:45;;;;;;;10.35;5.53;;;7.50;35.30;;;;;;5014056;28;20042;-78
2022/03/18 02:20:11;;;;;;;12.55;5.45;;;7.50;35.30;;;;;;5013763;28;20427;-77
2022/03/18 02:22:39;;;;;;;10.13;5.63;;;7.50;35.30;;;;;;5012725;28;20034;-78
2022/03/18 02:25:09;;;;;;;13.23;5.57;;;7.50;35.30;;;;;;5027893;28;20088;-77
2022/03/18 02:27:59;;;;;;;12.95;6.13;;;7.50;35.30;;;;;;5014228;28;20481;-77
2022/03/18 02:30:30;;;;;;;11.85;5.68;;;7.50;35.30;;;;;;5012443;28;20073;-77
2022/03/18 02:32:57;;;;;;;11.93;5.50;;;7.50;35.30;;;;;;5013633;28;20041;-78
2022/03/18 02:35:22;;;;;;;16.05;5.78;;;7.40;35.20;;;;;;5012991;28;20120;-78
2022/03/18 02:37:48;;;;;;;11.45;5.90;;;7.40;35.30;;;;;;5014678;28;20128;-77
2022/03/18 02:40:15;;;;;;;13.32;6.13;;;7.40;35.40;;;;;;5013158;28;20069;-76
2022/03/18 02:42:44;;;;;;;11.85;6.25;;;7.50;35.50;;;;;;5003318;28;20096;-77
2022/03/18 02:45:11;;;;;;;11.20;5.88;;;7.40;35.40;;;;;;5021034;28;20464;-77
2022/03/18 02:47:37;;;;;;;13.38;6.25;;;7.40;35.50;;;;;;5022452;28;20034;-77
2022/03/18 02:50:05;;;;;;;14.52;5.97;;;7.40;35.50;;;;;;5008503;28;20438;-77
2022/03/18 02:52:31;;;;;;;13.55;6.53;;;7.40;35.50;;;;;;5009475;28;20029;-78
2022/03/18 02:54:57;;;;;;;13.40;5.93;;;7.40;35.50;;;;;;5018380;28;20079;-78
2022/03/18 02:57:23;;;;;;;12.15;5.75;;;7.40;35.50;;;;;;5017372;28;20448;-78
2022/03/18 02:59:49;;;;;;;13.52;6.47;;;7.40;35.60;;;;;;5019123;28;20065;-77
2022/03/18 03:02:15;;;;;;;12.77;5.82;;;7.40;35.50;;;;;;5015918;28;20040;-77
2022/03/18 03:07:59;;;;;;;11.60;5.95;;;7.40;35.80;;;;;;4988380;28;20069;-77
2022/03/18 03:08:12;;;;;;;11.15;5.93;;;7.30;35.50;;;;;;5018202;28;20030;-78
2022/03/18 03:10:13;;;;;;;10.35;5.75;;;7.30;35.50;;;;;;5013499;28;20041;-76
2022/03/18 03:12:40;;;;;;;10.52;5.70;;;7.30;35.50;;;;;;5018633;28;20412;-78
2022/03/18 03:15:07;;;;;;;11.57;6.40;;;7.30;35.50;;;;;;5015538;28;20037;-78
2022/03/18 03:17:34;;;;;;;11.02;5.35;;;7.30;35.50;;;;;;5016052;28;20128;-78
2022/03/18 03:20:00;;;;;;;12.48;6.00;;;7.30;35.50;;;;;;5020574;28;20041;-78
2022/03/18 03:22:28;;;;;;;11.00;5.72;;;7.30;35.50;;;;;;5017960;28;20762;-77
2022/03/18 03:24:55;;;;;;;12.35;5.97;;;7.20;35.50;;;;;;5015978;28;20489;-77
2022/03/18 03:27:21;;;;;;;9.13;5.03;;;7.30;35.60;;;;;;5014742;28;20033;-78
2022/03/18 03:29:48;;;;;;;15.05;5.70;;;7.30;35.70;;;;;;5015881;28;20041;-77
2022/03/18 03:32:15;;;;;;;12.05;5.45;;;7.20;35.60;;;;;;5015982;28;20041;-78
2022/03/18 03:34:41;;;;;;;14.32;5.72;;;7.30;35.80;;;;;;5015306;28;20091;-78
2022/03/18 03:37:07;;;;;;;14.02;5.82;;;7.20;35.80;;;;;;4998455;28;20029;-78
2022/03/18 03:39:33;;;;;;;14.15;5.47;;;7.20;35.90;;;;;;5013396;28;20041;-78
2022/03/18 03:41:59;;;;;;;9.30;5.18;;;7.30;36.00;;;;;;5014709;28;20238;-78
2022/03/18 03:44:25;;;;;;;13.90;5.30;;;7.20;36.00;;;;;;5012528;28;20947;-78
2022/03/18 03:46:51;;;;;;;12.70;5.68;;;7.20;36.10;;;;;;5014729;28;20030;-78
2022/03/18 03:49:16;;;;;;;10.23;5.60;;;7.20;36.10;;;;;;5012767;28;20029;-78
2022/03/18 03:51:42;;;;;;;13.52;5.28;;;7.20;36.70;;;;;;5015311;28;20038;-77
2022/03/18 03:54:08;;;;;;;11.95;5.97;;;7.20;36.10;;;;;;5013385;28;20064;-77
2022/03/18 03:56:34;;;;;;;9.02;5.18;;;7.20;36.20;;;;;;5012806;28;20080;-78
2022/03/18 03:59:00;;;;;;;14.60;5.88;;;7.20;36.20;;;;;;5046344;28;20042;-77
2022/03/18 04:01:26;;;;;;;11.57;5.38;;;7.20;36.20;;;;;;5045760;28;20042;-77
2022/03/18 04:03:52;;;;;;;10.07;5.32;;;7.20;36.30;;;;;;5029952;28;20076;-78
2022/03/18 04:06:18;;;;;;;12.55;5.60;;;7.20;36.90;;;;;;5012439;28;20061;-77
2022/03/18 04:08:44;;;;;;;11.70;5.15;;;7.20;36.30;;;;;;4996501;28;20120;-78
2022/03/18 04:11:10;;;;;;;12.50;5.60;;;7.20;36.30;;;;;;4996339;28;20056;-78
2022/03/18 04:13:36;;;;;;;11.60;5.43;;;7.20;36.30;;;;;;4995549;28;20718;-78
2022/03/18 04:16:02;;;;;;;12.25;6.03;;;7.20;36.40;;;;;;5013697;28;20131;-76
2022/03/18 04:18:28;;;;;;;13.55;5.90;;;7.20;36.30;;;;;;5013291;28;20384;-75
2022/03/18 04:20:54;;;;;;;11.77;5.35;;;7.20;36.30;;;;;;4996361;28;20033;-76
2022/03/18 04:23:20;;;;;;;9.77;6.00;;;7.20;36.30;;;;;;5014212;28;20061;-75
2022/03/18 04:25:46;;;;;;;13.35;5.55;;;7.30;36.30;;;;;;5015142;28;20038;-74
2022/03/18 04:28:12;;;;;;;13.10;5.15;;;7.20;36.20;;;;;;5018354;28;20524;-75
2022/03/18 04:30:39;;;;;;;10.05;5.75;;;7.20;36.20;;;;;;5017845;28;20065;-74
2022/03/18 04:33:05;;;;;;;14.70;6.13;;;7.30;36.20;;;;;;5017852;28;20046;-75
2022/03/18 04:35:32;;;;;;;11.75;5.20;;;7.20;36.20;;;;;;5016113;28;20042;-75
2022/03/18 04:37:58;;;;;;;9.45;6.20;;;7.20;36.20;;;;;;5017448;28;20052;-75
2022/03/18 04:40:24;;;;;;;11.65;5.63;;;7.20;36.30;;;;;;5019423;28;20561;-75
2022/03/18 04:42:50;;;;;;;9.55;5.93;;;7.20;36.30;;;;;;5017650;28;20029;-75
2022/03/18 04:45:16;;;;;;;10.02;6.20;;;7.20;36.40;;;;;;5019327;28;20075;-79
2022/03/18 04:47:42;;;;;;;14.25;6.10;;;7.30;36.50;;;;;;4983674;28;20107;-80
2022/03/18 04:50:10;;;;;;;10.77;5.90;;;7.30;36.50;;;;;;5002176;28;20480;-82
2022/03/18 04:52:36;;;;;;;10.60;5.40;;;7.30;36.60;;;;;;5024552;28;20065;-82
2022/03/18 04:55:03;;;;;;;13.38;5.85;;;7.30;36.60;;;;;;5021929;28;20033;-82
2022/03/18 04:57:31;;;;;;;10.07;5.53;;;7.30;36.70;;;;;;5018406;28;20053;-83
2022/03/18 04:59:57;;;;;;;9.85;4.90;;;7.30;36.70;;;;;;5017791;28;20037;-83
2022/03/18 05:02:24;;;;;;;9.85;4.93;;;7.30;36.60;;;;;;5017667;28;20437;-81
2022/03/18 05:04:51;;;;;;;8.50;4.90;;;7.30;36.60;;;;;;5018058;28;20148;-82
2022/03/18 05:07:18;;;;;;;10.00;4.97;;;7.30;36.60;;;;;;5015980;28;20041;-83
2022/03/18 05:09:46;;;;;;;15.43;5.18;;;7.40;36.60;;;;;;5018733;28;20056;-80
2022/03/18 05:12:14;;;;;;;22.08;11.70;;;7.30;36.50;;;;;;5015495;28;20144;-82
2022/03/18 05:14:41;;;;;;;16.38;9.00;;;7.40;36.60;;;;;;5014898;28;20041;-82
2022/03/18 05:17:08;;;;;;;14.02;7.97;;;7.40;36.60;;;;;;5015493;28;20059;-82
2022/03/18 05:19:35;;;;;;;17.60;8.10;;;7.40;36.60;;;;;;5015784;28;20060;-81
2022/03/18 05:22:01;;;;;;;14.07;7.75;;;7.40;36.60;;;;;;5015357;28;20029;-82
2022/03/18 05:24:27;;;;;;;15.48;7.15;;;7.40;36.70;;;;;;5015572;28;20029;-81
2022/03/18 05:26:56;;;;;;;13.65;6.80;;;7.40;36.70;;;;;;5015548;28;20033;-81
2022/03/18 05:29:23;;;;;;;15.80;5.95;;;7.50;36.70;;;;;;5014855;28;20034;-82
2022/03/18 05:31:49;;;;;;;10.45;5.80;;;7.40;36.70;;;;;;5016445;28;20034;-81
2022/03/18 05:34:15;;;;;;;13.50;6.55;;;7.50;36.70;;;;;;5019809;28;20094;-81
2022/03/18 05:36:42;;;;;;;11.82;6.85;;;7.50;36.70;;;;;;5016146;28;20620;-83
2022/03/18 05:39:08;;;;;;;12.52;5.57;;;7.50;36.70;;;;;;5015757;28;20082;-81
2022/03/18 05:41:34;;;;;;;9.73;5.85;;;7.60;36.80;;;;;;5016471;28;20038;-81
2022/03/18 05:44:00;;;;;;;8.10;5.20;;;7.70;36.70;;;;;;5015782;28;20034;-83
2022/03/18 05:46:26;;;;;;;9.40;5.07;;;7.80;36.90;;;;;;4998527;28;20048;-81
2022/03/18 05:48:52;;;;;;;10.85;4.90;;;7.90;37.00;;;;;;5016059;28;20060;-81
2022/03/18 05:51:18;;;;;;;8.38;4.65;;;8.10;37.10;;;;;;5017016;28;20042;-80
2022/03/18 05:53:44;;;;;;;8.57;4.45;;;8.20;37.10;;;;;;5015988;28;20732;-82
2022/03/18 05:58:55;;;;;;;8.30;4.18;;;8.40;37.30;;;;;;5014030;28;20095;-81
2022/03/18 06:01:21;;;;;;;8.13;4.40;;;8.60;37.40;;;;;;4997957;28;20041;-82
2022/03/18 06:03:51;;;;;;;8.27;4.35;;;8.60;37.50;;;;;;4998370;28;20413;-81
2022/03/18 06:06:17;;;;;;;6.65;4.10;;;8.70;37.50;;;;;;5013671;28;20440;-81
2022/03/18 06:14:14;;;;;;;6.97;3.95;;;9.10;37.80;;;;;;5000698;28;20266;-83
2022/03/18 06:16:40;;;;;;;8.38;4.50;;;9.10;37.90;;;;;;5016542;28;20034;-83
2022/03/18 06:19:06;;;;;;;7.22;4.07;;;9.30;38.00;;;;;;5019596;28;20986;-83
2022/03/18 06:21:32;;;;;;;4.50;3.75;;;9.30;38.00;;;;;;5017533;28;20095;-82
2022/03/18 06:23:58;;;;;;;7.68;4.18;;;9.40;38.70;;;;;;5017520;28;20465;-82
2022/03/18 06:26:24;;;;;;;6.70;3.90;;;9.50;38.20;;;;;;5019315;28;20036;-82
2022/03/18 06:28:52;;;;;;;9.23;3.78;;;9.60;38.20;;;;;;5050397;28;20045;-83
2022/03/18 06:31:18;;;;;;;6.03;3.97;;;9.70;38.30;;;;;;5018668;28;20038;-81
2022/03/18 06:33:44;;;;;;;7.65;3.83;;;9.80;38.30;;;;;;5019635;28;20083;-83
2022/03/18 06:36:11;;;;;;;6.00;3.97;;;9.90;38.40;;;;;;5019092;28;20111;-83
2022/03/18 06:38:38;;;;;;;5.65;3.60;;;10.00;38.50;;;;;;5018961;28;20451;-82
2022/03/18 06:41:04;;;;;;;6.28;3.67;;;10.10;38.60;;;;;;5018749;28;20067;-81
2022/03/18 06:43:32;;;;;;;5.45;3.65;;;10.20;38.70;;;;;;4984708;28;20095;-80
2022/03/18 06:45:58;;;;;;;5.05;3.38;;;10.30;38.70;;;;;;5019361;28;20146;-90
2022/03/18 06:48:25;;;;;;;13.18;4.82;;;10.40;38.80;;;;;;5018569;28;20128;-88
2022/03/18 06:50:52;;;;;;;7.55;4.78;;;10.50;38.90;;;;;;5020297;28;20064;-87
2022/03/18 06:53:18;;;;;;;11.32;4.50;;;10.70;38.10;;;;;;5018400;28;20027;-90
2022/03/18 06:55:44;;;;;;;11.38;4.47;;;10.70;37.70;;;;;;5039003;28;20054;-79
2022/03/18 06:58:09;;;;;;;8.30;5.28;;;10.90;37.10;;;;;;5043170;28;20075;-84
2022/03/18 07:00:38;;;;;;;12.10;4.88;;;10.90;36.60;;;;;;5042739;28;20034;-83
2022/03/18 07:03:05;;;;;;;15.20;4.63;;;11.00;36.30;;;;;;5025751;28;20380;-82
2022/03/18 07:05:32;;;;;;;8.50;4.95;;;11.10;36.10;;;;;;5016962;28;20030;-82
2022/03/18 07:07:59;;;;;;;6.15;3.95;;;11.20;36.40;;;;;;5017964;28;20033;-82
2022/03/18 07:10:25;;;;;;;13.30;4.72;;;11.30;36.50;;;;;;5017917;28;20036;-81
2022/03/18 07:12:51;;;;;;;9.80;4.32;;;11.40;36.20;;;;;;5017103;28;20187;-80
2022/03/18 07:15:18;;;;;;;11.27;4.82;;;11.40;36.20;;;;;;5019717;28;20117;-83
2022/03/18 07:17:59;;;;;;;18.73;4.88;;;11.40;35.80;;;;;;5015711;28;20041;-84
2022/03/18 07:20:26;;;;;;;9.23;4.35;;;11.40;35.70;;;;;;5016858;28;20084;-84
2022/03/18 07:23:22;;;;;;;9.80;4.50;;;11.60;35.60;;;;;;5018537;28;20037;-86
2022/03/18 07:25:49;;;;;;;10.73;4.65;;;11.60;35.90;;;;;;5009108;28;20045;-90
2022/03/18 07:28:16;;;;;;;6.22;4.50;;;11.60;35.60;;;;;;5019070;28;20120;-89
2022/03/18 07:30:44;;;;;;;10.88;4.85;;;11.70;35.10;;;;;;5006263;28;20033;-88
2022/03/18 07:33:10;;;;;;;10.85;4.13;;;11.80;34.90;;;;;;5015524;28;20468;-86
2022/03/18 07:35:37;;;;;;;9.60;4.72;;;11.80;34.90;;;;;;5019156;28;20451;-87
2022/03/18 07:38:09;;;;;;;9.07;4.68;;;11.90;34.70;;;;;;5018922;28;20043;-94
2022/03/18 07:40:39;;;;;;;8.75;4.70;;;11.90;34.60;;;;;;5016011;28;20038;-82
2022/03/18 07:43:05;;;;;;;16.75;5.18;;;12.00;34.60;;;;;;5019811;28;20025;-83
2022/03/18 07:45:33;;;;;;;7.22;4.75;;;12.00;34.60;;;;;;5017109;28;20354;-83
2022/03/18 07:48:03;;;;;;;8.05;4.57;;;12.00;34.70;;;;;;5006203;28;20038;-83
2022/03/18 07:50:31;;;;;;;14.15;4.38;;;12.10;34.90;;;;;;5015521;28;20035;-85
2022/03/18 07:53:00;;;;;;;10.93;4.75;;;12.00;35.00;;;;;;5017073;28;20544;-85
2022/03/18 07:55:27;;;;;;;7.93;4.43;;;12.10;34.90;;;;;;5016036;28;20397;-81
2022/03/18 07:57:55;;;;;;;10.50;4.38;;;12.10;34.60;;;;;;5017876;28;20029;-84
2022/03/18 08:00:21;;;;;;;6.50;4.30;;;12.10;34.70;;;;;;5020665;28;20038;-80
2022/03/18 08:02:49;;;;;;;9.75;5.13;;;12.10;34.80;;;;;;5019696;28;20034;-78
2022/03/18 08:05:16;;;;;;;13.98;5.05;;;12.10;34.90;;;;;;5027897;28;20034;-82
2022/03/18 08:07:42;;;;;;;7.35;4.90;;;12.10;34.80;;;;;;5017507;28;20030;-77
2022/03/18 08:10:09;;;;;;;10.38;4.20;;;12.10;34.90;;;;;;5014263;28;20038;-78
2022/03/18 08:12:40;;;;;;;7.88;4.57;;;12.10;35.00;;;;;;5016037;28;20065;-78
2022/03/18 08:15:12;;;;;;;9.23;4.50;;;12.10;34.90;;;;;;5032083;28;20048;-77
2022/03/18 08:17:39;;;;;;;13.75;5.20;;;12.10;35.10;;;;;;5017298;28;20057;-77
2022/03/18 08:20:07;;;;;;;8.43;4.05;;;12.10;35.40;;;;;;5016921;28;20041;-76
2022/03/18 08:22:36;;;;;;;7.95;5.03;;;12.10;35.20;;;;;;5015539;28;20041;-76
2022/03/18 08:25:03;;;;;;;7.65;4.68;;;12.00;35.40;;;;;;5016023;28;20419;-77
2022/03/18 08:27:29;;;;;;;10.30;4.32;;;12.10;35.30;;;;;;5015105;28;20575;-78
2022/03/18 08:29:59;;;;;;;9.00;5.05;;;12.00;35.90;;;;;;5016105;28;20531;-76
2022/03/18 08:32:27;;;;;;;10.90;4.50;;;12.10;35.70;;;;;;5014039;28;20049;-76
2022/03/18 08:34:53;;;;;;;10.40;6.95;;;12.10;36.10;;;;;;5015233;28;20044;-76
2022/03/18 08:37:56;;;;;;;19.02;9.77;;;12.10;36.30;;;;;;5029150;28;20038;-79
2022/03/18 08:40:08;;;;;;;16.15;6.13;;;12.10;36.40;;;;;;5011733;28;20137;-79
2022/03/18 08:42:34;;;;;;;14.40;6.20;;;12.10;36.50;;;;;;5021284;28;20042;-77
2022/03/18 08:45:01;;;;;;;10.07;5.50;;;12.10;37.30;;;;;;5013892;28;20045;-78
2022/03/18 08:47:27;;;;;;;8.02;5.60;;;12.10;36.90;;;;;;5019577;28;20056;-78
2022/03/18 08:49:53;;;;;;;9.18;5.00;;;12.10;36.80;;;;;;5015732;28;20485;-78
2022/03/18 08:52:19;;;;;;;9.23;5.28;;;12.10;36.20;;;;;;5029442;28;20073;-76
2022/03/18 08:54:45;;;;;;;11.55;4.85;;;12.10;36.30;;;;;;5015451;28;20037;-77
2022/03/18 08:57:11;;;;;;;8.38;4.25;;;12.10;36.00;;;;;;5014552;28;20411;-77
2022/03/18 08:59:37;;;;;;;9.00;4.32;;;12.00;35.20;;;;;;5014708;28;20474;-77
2022/03/18 09:02:03;;;;;;;9.65;4.22;;;12.10;35.30;;;;;;5014341;28;20033;-77
2022/03/18 09:04:29;;;;;;;6.25;4.07;;;12.10;35.00;;;;;;5014252;28;20034;-76
2022/03/18 09:06:55;;;;;;;6.07;4.30;;;12.10;35.20;;;;;;5029794;28;20060;-76
2022/03/18 09:09:21;;;;;;;9.48;4.70;;;12.10;35.20;;;;;;5013848;28;20034;-77
2022/03/18 09:11:47;;;;;;;5.45;3.88;;;12.00;35.20;;;;;;4996015;28;20432;-77
2022/03/18 09:14:14;;;;;;;6.72;4.32;;;12.00;35.20;;;;;;5013172;28;20084;-78
2022/03/18 09:16:39;;;;;;;9.55;3.53;;;12.00;35.70;;;;;;5011852;28;20038;-77
2022/03/18 09:19:06;;;;;;;7.45;4.07;;;12.10;35.80;;;;;;5014035;28;20587;-79
2022/03/18 09:21:32;;;;;;;8.02;3.67;;;12.00;35.30;;;;;;5002099;28;20076;-78
2022/03/18 09:23:58;;;;;;;8.27;3.63;;;12.00;35.10;;;;;;5012252;28;20394;-77
2022/03/18 09:26:25;;;;;;;6.03;4.30;;;12.00;35.30;;;;;;5014876;28;20091;-76
2022/03/18 09:28:51;;;;;;;7.25;4.18;;;12.00;35.60;;;;;;5013088;28;20044;-76
2022/03/18 09:31:16;;;;;;;7.65;3.67;;;11.90;35.60;;;;;;5013922;28;20034;-74
2022/03/18 09:33:42;;;;;;;9.25;4.32;;;11.90;35.90;;;;;;5012731;28;20037;-78
2022/03/18 09:36:10;;;;;;;11.00;4.10;;;11.90;36.10;;;;;;5013283;28;20428;-86
2022/03/18 09:38:37;;;;;;;6.18;3.90;;;11.90;36.30;;;;;;4996409;28;20041;-78
2022/03/18 09:41:05;;;;;;;6.95;4.07;;;12.00;37.30;;;;;;5012344;28;20045;-78
2022/03/18 09:43:39;;;;;;;12.00;4.82;;;12.00;38.20;;;;;;5014318;28;20067;-79
2022/03/18 09:46:06;;;;;;;11.18;4.70;;;12.00;39.40;;;;;;5014676;28;20033;-81
2022/03/18 09:48:33;;;;;;;13.30;4.35;;;12.00;40.70;;;;;;5015262;28;20029;-81
2022/03/18 09:50:59;;;;;;;12.65;4.35;;;12.00;42.00;;;;;;4998298;28;20452;-85
2022/03/18 09:53:25;;;;;;;11.57;4.78;;;12.00;42.50;;;;;;4998130;28;20087;-83
2022/03/18 09:55:52;;;;;;;8.63;4.60;;;12.10;43.20;;;;;;5014403;28;20060;-82
2022/03/18 09:58:24;;;;;;;6.22;4.70;;;12.10;43.60;;;;;;5014149;28;20040;-85
2022/03/18 10:00:50;;;;;;;12.98;4.60;;;12.10;44.10;;;;;;5015275;28;20038;-81
2022/03/18 10:03:19;;;;;;;8.15;4.25;;;12.10;44.40;;;;;;5013017;28;20767;-82
2022/03/18 10:06:04;;;;;;;6.95;4.55;;;12.10;44.00;;;;;;5014106;28;20033;-83
2022/03/18 10:08:38;;;;;;;9.27;4.50;;;12.20;44.00;;;;;;5015753;28;20145;-82
2022/03/18 10:11:21;;;;;;;8.80;4.70;;;12.10;43.00;;;;;;4999928;28;20038;-81
2022/03/18 10:13:57;;;;;;;7.35;4.72;;;12.20;42.90;;;;;;5037960;28;20072;-82
2022/03/18 10:16:30;;;;;;;8.05;4.40;;;12.20;43.30;;;;;;5033577;28;20735;-82
2022/03/18 10:18:56;;;;;;;6.38;4.22;;;12.20;43.60;;;;;;5029724;28;20041;-82
2022/03/18 10:21:22;;;;;;;8.25;3.90;;;12.20;43.30;;;;;;5013211;28;20037;-82
2022/03/18 10:23:48;;;;;;;7.40;4.00;;;12.20;41.80;;;;;;4996370;28;20037;-83
2022/03/18 10:26:15;;;;;;;6.47;4.40;;;12.30;41.90;;;;;;5013506;28;20124;-82
2022/03/18 10:28:43;;;;;;;6.78;3.90;;;12.30;42.20;;;;;;5014352;28;20447;-83
2022/03/18 10:31:18;;;;;;;6.00;4.35;;;12.30;41.70;;;;;;5014576;28;20529;-83
2022/03/18 10:39:23;;;;;;;5.30;4.00;;;12.30;40.70;;;;;;4998828;28;20040;-84
2022/03/18 10:41:49;;;;;;;7.47;4.03;;;12.30;41.30;;;;;;4985558;28;20041;-83
2022/03/18 10:44:17;;;;;;;6.25;4.20;;;12.30;41.40;;;;;;4996953;28;20038;-82
2022/03/18 10:46:44;;;;;;;5.75;4.07;;;12.30;41.90;;;;;;5015210;28;20069;-83
2022/03/18 10:49:10;;;;;;;7.03;4.20;;;12.30;41.80;;;;;;5046665;28;20068;-84
2022/03/18 10:51:40;;;;;;;5.65;3.80;;;12.30;42.20;;;;;;5014046;28;20038;-83
2022/03/18 10:54:06;;;;;;;5.88;4.07;;;12.40;41.90;;;;;;5013877;28;20138;-82
2022/03/18 10:56:58;;;;;;;4.90;3.58;;;12.40;41.40;;;;;;5014160;28;20037;-85
2022/03/18 10:59:27;;;;;;;7.47;4.03;;;12.30;40.60;;;;;;5013834;28;20137;-84
2022/03/18 11:01:57;;;;;;;6.28;3.90;;;12.40;40.60;;;;;;4997623;28;20041;-83
2022/03/18 11:04:24;;;;;;;8.73;4.35;;;12.40;40.50;;;;;;5016492;28;20165;-84
2022/03/18 11:12:48;;;;;;;8.82;3.92;;;12.40;39.50;;;;;;5015090;28;20062;-83
2022/03/18 11:15:16;;;;;;;8.13;3.47;;;12.40;39.60;;;;;;4983525;28;20061;-84
2022/03/18 11:17:44;;;;;;;6.13;4.13;;;12.40;40.00;;;;;;5013722;28;20038;-82
2022/03/18 11:20:11;;;;;;;5.85;3.25;;;12.40;39.60;;;;;;5014820;28;20132;-84
2022/03/18 11:22:39;;;;;;;3.97;3.33;;;12.40;39.20;;;;;;5006703;28;20045;-84
2022/03/18 11:25:09;;;;;;;6.32;3.78;;;12.40;38.40;;;;;;5016199;28;20132;-80
2022/03/18 11:27:37;;;;;;;4.15;3.15;;;12.40;37.70;;;;;;5000576;28;20033;-79
2022/03/18 11:30:20;;;;;;;7.00;3.67;;;12.40;37.30;;;;;;4996519;28;20061;-80
2022/03/18 11:33:10;;;;;;;7.45;3.45;;;12.30;36.90;;;;;;4998702;28;20092;-79
2022/03/18 11:35:48;;;;;;;5.55;3.67;;;12.30;37.00;;;;;;5009125;28;20033;-80
2022/03/18 11:38:26;;;;;;;5.60;3.40;;;12.30;37.10;;;;;;4999187;28;20297;-81
2022/03/18 11:40:53;;;;;;;6.05;3.72;;;12.30;37.00;;;;;;4998977;28;20061;-80
2022/03/18 11:43:30;;;;;;;7.20;3.42;;;12.20;37.20;;;;;;5004666;28;20045;-79
2022/03/18 11:46:16;;;;;;;6.05;3.17;;;12.30;37.50;;;;;;5016315;28;20056;-81
2022/03/18 11:48:52;;;;;;;5.13;2.85;;;12.30;37.40;;;;;;5033508;28;20057;-83
2022/03/18 11:51:57;;;;;;;5.82;2.45;;;12.20;37.10;;;;;;5015778;28;20092;-82
2022/03/18 11:54:27;;;;;;;3.45;2.70;;;12.20;36.90;;;;;;5016726;28;20421;-81
2022/03/18 11:56:55;;;;;;;5.57;2.80;;;12.20;36.90;;;;;;5000129;28;20425;-82
2022/03/18 11:59:24;;;;;;;3.72;2.67;;;12.10;36.60;;;;;;5021677;28;20125;-82
2022/03/18 12:01:56;;;;;;;7.28;3.17;;;12.10;37.00;;;;;;5024552;28;20128;-82
2022/03/18 12:04:38;;;;;;;5.93;2.70;;;12.00;37.50;;;;;;5023465;28;20072;-76
2022/03/18 12:07:11;;;;;;;4.95;3.08;;;12.10;37.80;;;;;;5023760;28;20167;-78
2022/03/18 12:09:58;;;;;;;6.25;2.80;;;12.00;37.60;;;;;;5017576;28;20112;-75
2022/03/18 12:12:25;;;;;;;7.30;2.80;;;12.00;37.30;;;;;;5013937;28;20057;-75
2022/03/18 12:14:53;;;;;;;5.15;3.35;;;12.00;37.50;;;;;;5016643;28;20117;-76
2022/03/18 12:17:24;;;;;;;5.40;3.05;;;12.00;37.60;;;;;;5016533;28;20033;-75
2022/03/18 12:19:55;;;;;;;8.50;3.08;;;12.00;37.60;;;;;;5006455;28;20124;-76
2022/03/18 12:22:23;;;;;;;5.40;2.92;;;12.00;37.60;;;;;;5049080;28;20552;-75
2022/03/18 12:24:51;;;;;;;5.57;3.10;;;12.00;37.80;;;;;;5018609;28;20124;-77
2022/03/18 12:27:19;;;;;;;4.60;2.97;;;12.00;37.90;;;;;;5004015;28;20431;-77
2022/03/18 12:29:45;;;;;;;5.68;3.00;;;12.00;38.00;;;;;;5015256;28;20064;-75
2022/03/18 12:32:13;;;;;;;7.50;3.28;;;12.00;38.50;;;;;;5016581;28;20034;-75
2022/03/18 12:34:53;;;;;;;6.88;2.65;;;12.00;38.50;;;;;;5017026;28;20042;-77
2022/03/18 12:37:23;;;;;;;4.90;2.80;;;12.00;38.00;;;;;;5015504;28;20092;-75
2022/03/18 12:40:11;;;;;;;4.05;2.88;;;11.90;38.00;;;;;;5012427;28;20034;-77
2022/03/18 12:42:56;;;;;;;5.88;3.53;;;11.90;38.10;;;;;;5010301;28;20121;-77
2022/03/18 12:45:37;;;;;;;6.57;3.28;;;11.90;38.20;;;;;;5011214;28;20533;-78
2022/03/18 12:48:13;;;;;;;8.18;3.20;;;11.90;38.30;;;;;;5013406;28;20038;-77
2022/03/18 12:50:47;;;;;;;3.00;2.70;;;11.90;38.60;;;;;;5014376;28;20037;-77
2022/03/18 12:53:18;;;;;;;5.50;2.97;;;11.90;38.90;;;;;;5013074;28;20428;-77
2022/03/18 12:55:49;;;;;;;5.15;3.20;;;11.90;39.20;;;;;;5014069;28;20045;-77
2022/03/18 12:58:23;;;;;;;3.90;2.90;;;12.00;40.00;;;;;;5012176;28;20042;-77
2022/03/18 13:00:54;;;;;;;3.88;2.92;;;12.00;40.10;;;;;;5016093;28;20026;-77
2022/03/18 13:03:23;;;;;;;5.28;3.15;;;12.00;40.40;;;;;;5019116;28;20132;-77
2022/03/18 13:05:52;;;;;;;4.47;2.70;;;12.00;40.70;;;;;;5015539;28;20492;-78
2022/03/18 13:08:22;;;;;;;5.28;2.92;;;12.00;40.60;;;;;;5017182;28;20107;-77
2022/03/18 13:10:59;;;;;;;4.90;2.65;;;12.00;40.80;;;;;;5011324;28;20050;-77
2022/03/18 13:13:27;;;;;;;4.38;2.30;;;12.10;41.50;;;;;;5013886;28;20417;-76